Time;durP1;ratioP1;P1;durP2;ratioP2;P2;SDS_P1;SDS_P2;PMS_P1;PMS_P2;Temp;Humidity;BMP_temperature;BMP_pressure;BME280_temperature;BME280_humidity;BME280_pressure;Samples;Min_cycle;Max_cycle;Signal;HPM_P1;HPM_P2
2024/01/25 00:01:18;;;;;;;1999.90;999.90;;;8.80;99.90;;;;;;5085783;28;20937;-65
2024/01/25 00:03:45;;;;;;;1999.90;999.90;;;8.80;99.90;;;;;;5080023;28;20919;-67
2024/01/25 00:06:12;;;;;;;1999.90;999.90;;;8.80;99.90;;;;;;5094842;28;20434;-67
2024/01/25 00:08:38;;;;;;;1999.90;999.90;;;8.80;99.90;;;;;;5096704;28;20463;-66
2024/01/25 00:11:06;;;;;;;1999.90;999.90;;;8.80;99.90;;;;;;5073304;28;20414;-63
2024/01/25 00:13:33;;;;;;;1999.90;999.90;;;8.80;99.90;;;;;;5079602;28;20419;-67
2024/01/25 00:16:00;;;;;;;1999.90;999.90;;;8.80;99.90;;;;;;5081727;28;20435;-66
2024/01/25 00:18:28;;;;;;;1999.90;999.90;;;8.80;99.90;;;;;;5095812;28;20410;-66
2024/01/25 00:20:55;;;;;;;1999.90;999.90;;;8.80;99.90;;;;;;5099220;28;20511;-66
2024/01/25 00:23:20;;;;;;;1999.90;999.90;;;8.80;99.90;;;;;;5099230;28;20433;-70
2024/01/25 00:25:47;;;;;;;1999.90;999.90;;;8.80;99.90;;;;;;5084032;28;20411;-67
2024/01/25 00:28:15;;;;;;;1999.90;999.90;;;8.80;99.90;;;;;;5088960;28;20467;-67
2024/01/25 00:30:42;;;;;;;1999.90;999.90;;;8.80;99.90;;;;;;5089035;28;20414;-64
2024/01/25 00:33:08;;;;;;;1999.90;999.90;;;8.80;99.90;;;;;;5081231;28;20406;-66
2024/01/25 00:35:35;;;;;;;1999.90;999.90;;;8.80;99.90;;;;;;5076658;28;20442;-67
2024/01/25 00:38:03;;;;;;;1999.90;999.90;;;8.70;99.90;;;;;;5088229;28;20459;-68
2024/01/25 00:40:30;;;;;;;1999.90;999.90;;;8.70;99.90;;;;;;5090994;28;20417;-65
2024/01/25 00:42:57;;;;;;;1999.90;999.90;;;8.70;99.90;;;;;;5087812;28;20483;-67
2024/01/25 00:45:25;;;;;;;1999.90;999.90;;;8.70;99.90;;;;;;5074314;28;20415;-67
2024/01/25 00:47:52;;;;;;;1999.90;999.90;;;8.70;99.90;;;;;;5077603;28;20412;-68
2024/01/25 00:50:23;;;;;;;1999.90;999.90;;;8.70;99.90;;;;;;5086254;28;20919;-67
2024/01/25 00:52:51;;;;;;;1999.90;999.90;;;8.70;99.90;;;;;;5094546;28;20435;-67
2024/01/25 00:55:18;;;;;;;1999.90;999.90;;;8.70;99.90;;;;;;5081524;28;20422;-68
2024/01/25 00:57:45;;;;;;;1999.90;999.90;;;8.70;99.90;;;;;;5101056;28;20498;-67
2024/01/25 01:00:13;;;;;;;1999.90;999.90;;;8.70;99.90;;;;;;5082232;28;20410;-67
2024/01/25 01:02:44;;;;;;;1999.90;999.90;;;8.70;99.90;;;;;;5088624;28;20475;-66
2024/01/25 01:05:12;;;;;;;1999.90;999.90;;;8.70;99.90;;;;;;5069248;28;20494;-67
2024/01/25 01:07:40;;;;;;;1999.90;999.90;;;8.70;99.90;;;;;;5090914;28;20817;-66
2024/01/25 01:10:08;;;;;;;1999.90;999.90;;;8.60;99.90;;;;;;5084485;28;20469;-66
2024/01/25 01:12:35;;;;;;;1999.90;999.90;;;8.60;99.90;;;;;;5085583;28;20775;-67
2024/01/25 01:15:01;;;;;;;1999.90;999.90;;;8.60;99.90;;;;;;5095953;28;20497;-67
2024/01/25 01:17:28;;;;;;;1999.90;999.90;;;8.60;99.90;;;;;;5100607;28;20472;-68
2024/01/25 01:19:56;;;;;;;1999.90;999.90;;;8.60;99.90;;;;;;5095818;28;20484;-68
2024/01/25 01:22:22;;;;;;;1999.90;999.90;;;8.50;99.90;;;;;;5085829;28;20822;-68
2024/01/25 01:24:49;;;;;;;1999.90;999.90;;;8.50;99.90;;;;;;5091264;28;20424;-68
2024/01/25 01:27:16;;;;;;;1999.90;999.90;;;8.50;99.90;;;;;;5097487;28;20435;-67
2024/01/25 01:29:43;;;;;;;1999.90;999.90;;;8.50;99.90;;;;;;5079528;28;20407;-69
2024/01/25 01:32:10;;;;;;;1999.90;999.90;;;8.50;99.90;;;;;;5091610;28;20463;-67
2024/01/25 01:34:36;;;;;;;1999.90;999.90;;;8.40;99.90;;;;;;5084109;28;20414;-69
2024/01/25 01:37:04;;;;;;;1999.90;999.90;;;8.40;99.90;;;;;;5090156;28;20413;-67
2024/01/25 01:39:31;;;;;;;1999.90;999.90;;;8.30;99.90;;;;;;5090615;28;20446;-67
2024/01/25 01:41:58;;;;;;;1999.90;999.90;;;8.30;99.90;;;;;;5097898;28;20413;-68
2024/01/25 01:44:25;;;;;;;1999.90;999.90;;;8.30;99.90;;;;;;5082801;28;20422;-65
2024/01/25 01:46:51;;;;;;;1999.90;999.90;;;8.40;99.90;;;;;;5087112;28;20446;-67
2024/01/25 01:49:19;;;;;;;1999.90;999.90;;;8.30;99.90;;;;;;5087172;28;20828;-68
2024/01/25 01:51:46;;;;;;;1999.90;999.90;;;8.30;99.90;;;;;;5081513;28;20789;-68
2024/01/25 01:54:14;;;;;;;1999.90;999.90;;;8.30;99.90;;;;;;5087322;28;20426;-68
2024/01/25 01:56:41;;;;;;;1999.90;999.90;;;8.30;99.90;;;;;;5092598;28;20502;-68
2024/01/25 01:59:11;;;;;;;1999.90;999.90;;;8.30;99.90;;;;;;5093515;28;20888;-68
2024/01/25 02:01:38;;;;;;;1999.90;999.90;;;8.30;99.90;;;;;;5091441;28;20415;-68
2024/01/25 02:04:05;;;;;;;1999.90;999.90;;;8.30;99.90;;;;;;5079233;28;20953;-68
2024/01/25 02:06:32;;;;;;;1999.90;999.90;;;8.30;99.90;;;;;;5085969;28;20414;-66
2024/01/25 02:08:59;;;;;;;1999.90;999.90;;;8.20;99.90;;;;;;5092760;28;20823;-67
2024/01/25 02:11:27;;;;;;;1999.90;999.90;;;8.20;99.90;;;;;;5092507;28;20498;-67
2024/01/25 02:13:54;;;;;;;1999.90;999.90;;;8.20;99.90;;;;;;5088752;28;20418;-67
2024/01/25 02:16:20;;;;;;;1999.90;999.90;;;8.20;99.90;;;;;;5080066;28;20909;-67
2024/01/25 02:18:47;;;;;;;1999.90;999.90;;;8.20;99.90;;;;;;5085690;28;20438;-68
2024/01/25 02:21:14;;;;;;;1999.90;999.90;;;8.30;99.90;;;;;;5090262;28;20406;-66
2024/01/25 02:23:42;;;;;;;1999.90;999.90;;;8.30;99.90;;;;;;5092341;28;20423;-69
2024/01/25 02:26:09;;;;;;;1999.90;999.90;;;8.20;99.90;;;;;;5085137;28;20410;-65
2024/01/25 02:28:35;;;;;;;1999.90;999.90;;;8.20;99.90;;;;;;5091230;28;20841;-66
2024/01/25 02:31:03;;;;;;;1999.90;999.90;;;8.20;99.90;;;;;;5089700;28;20411;-65
2024/01/25 02:33:30;;;;;;;1999.90;999.90;;;8.20;99.90;;;;;;5085205;28;20423;-66
2024/01/25 02:35:57;;;;;;;1999.90;999.90;;;8.20;99.90;;;;;;5088979;28;20423;-66
2024/01/25 02:38:24;;;;;;;1999.90;999.90;;;8.10;99.90;;;;;;5087932;28;20406;-67
2024/01/25 02:40:53;;;;;;;1999.90;999.90;;;8.10;99.90;;;;;;5084075;28;20419;-68
2024/01/25 02:43:20;;;;;;;1999.90;999.90;;;8.10;99.90;;;;;;5090817;28;20426;-64
2024/01/25 02:45:48;;;;;;;1999.90;999.90;;;8.10;99.90;;;;;;5089515;28;20428;-67
2024/01/25 02:48:15;;;;;;;1999.90;999.90;;;8.00;99.90;;;;;;5087641;28;20429;-66
2024/01/25 02:50:41;;;;;;;1999.90;999.90;;;8.00;99.90;;;;;;5087408;28;20407;-65
2024/01/25 02:53:08;;;;;;;1999.90;999.90;;;8.00;99.90;;;;;;5086791;28;20402;-67
2024/01/25 02:55:34;;;;;;;1999.90;999.90;;;8.00;99.90;;;;;;5083589;28;20418;-66
2024/01/25 02:58:02;;;;;;;1999.90;999.90;;;8.00;99.90;;;;;;5081030;28;20416;-63
2024/01/25 03:00:29;;;;;;;1999.90;999.90;;;8.00;99.90;;;;;;5084308;28;20488;-65
2024/01/25 03:02:56;;;;;;;1999.90;999.90;;;8.00;99.90;;;;;;5096013;28;20428;-66
2024/01/25 03:05:22;;;;;;;1999.90;999.90;;;7.90;99.90;;;;;;5090573;28;20838;-63
2024/01/25 03:07:49;;;;;;;1999.90;999.90;;;8.50;99.90;;;;;;5090232;28;20427;-63
2024/01/25 03:10:16;;;;;;;1999.90;999.90;;;7.80;99.90;;;;;;5086845;28;20412;-66
2024/01/25 03:12:42;;;;;;;1999.90;999.90;;;7.80;99.90;;;;;;5080855;28;20411;-64
2024/01/25 03:15:12;;;;;;;1999.90;999.90;;;7.80;99.90;;;;;;5086006;28;20680;-66
2024/01/25 03:17:39;;;;;;;1999.90;999.90;;;7.80;99.90;;;;;;5088703;28;20485;-66
2024/01/25 03:20:07;;;;;;;1999.90;999.90;;;7.70;99.90;;;;;;5087238;28;20412;-63
2024/01/25 03:22:34;;;;;;;1999.90;999.90;;;7.80;99.90;;;;;;5082706;28;20419;-64
2024/01/25 03:25:00;;;;;;;1999.90;999.90;;;7.80;99.90;;;;;;5073377;28;20427;-66
2024/01/25 03:27:27;;;;;;;1999.90;999.90;;;7.70;99.90;;;;;;5082045;28;20459;-61
2024/01/25 03:29:53;;;;;;;1999.90;999.90;;;7.80;99.90;;;;;;5085607;28;20431;-67
2024/01/25 03:32:21;;;;;;;1999.90;999.90;;;7.70;99.90;;;;;;5094514;28;20405;-65
2024/01/25 03:34:48;;;;;;;1999.90;999.90;;;7.80;99.90;;;;;;5101780;28;20467;-63
2024/01/25 03:37:15;;;;;;;1999.90;999.90;;;7.70;99.90;;;;;;5090309;28;20967;-64
2024/01/25 03:39:41;;;;;;;1999.90;999.90;;;7.70;99.90;;;;;;5084686;28;20415;-63
2024/01/25 03:42:08;;;;;;;1999.90;999.90;;;7.70;99.90;;;;;;5089107;28;20417;-60
2024/01/25 03:44:35;;;;;;;1999.90;999.90;;;7.70;99.90;;;;;;5088426;28;20426;-61
2024/01/25 03:47:00;;;;;;;1999.90;999.90;;;7.70;99.90;;;;;;5090737;28;20463;-63
2024/01/25 03:49:28;;;;;;;1999.90;999.90;;;7.80;99.90;;;;;;5084850;28;20407;-64
2024/01/25 03:51:55;;;;;;;1999.90;999.90;;;7.80;99.90;;;;;;5080349;28;20776;-65
2024/01/25 03:54:22;;;;;;;1999.90;999.90;;;7.80;99.90;;;;;;5077751;28;20410;-67
2024/01/25 03:56:48;;;;;;;1999.90;999.90;;;7.80;99.90;;;;;;5083806;28;20478;-64
2024/01/25 03:59:15;;;;;;;1999.90;999.90;;;7.80;99.90;;;;;;5088923;28;20418;-64
2024/01/25 04:01:43;;;;;;;1999.90;999.90;;;7.80;99.90;;;;;;5093815;28;20434;-60
2024/01/25 04:04:10;;;;;;;1999.90;999.90;;;7.80;99.90;;;;;;5085228;28;20881;-61
2024/01/25 04:06:38;;;;;;;1999.90;999.90;;;7.80;99.90;;;;;;5085818;28;20491;-67
2024/01/25 04:09:06;;;;;;;1999.90;999.90;;;7.90;99.90;;;;;;5085374;28;20411;-64
2024/01/25 04:11:32;;;;;;;1999.90;999.90;;;7.90;99.90;;;;;;5083939;28;20433;-61
2024/01/25 04:13:59;;;;;;;1999.90;999.90;;;8.00;99.90;;;;;;5092844;28;20477;-65
2024/01/25 04:16:26;;;;;;;1999.90;999.90;;;7.90;99.90;;;;;;5081752;28;20414;-64
2024/01/25 04:18:53;;;;;;;1999.90;999.90;;;7.80;99.90;;;;;;5083719;28;20438;-64
2024/01/25 04:21:19;;;;;;;1999.90;999.90;;;7.80;99.90;;;;;;5081712;28;20418;-66
2024/01/25 04:23:47;;;;;;;1999.90;999.90;;;7.90;99.90;;;;;;5086892;28;20809;-67
2024/01/25 04:26:15;;;;;;;1999.90;999.90;;;7.90;99.90;;;;;;5079848;28;20479;-63
2024/01/25 04:28:42;;;;;;;1999.90;999.90;;;7.90;99.90;;;;;;5088680;28;20432;-67
2024/01/25 04:31:09;;;;;;;1999.90;999.90;;;7.90;99.90;;;;;;5080214;28;20788;-64
2024/01/25 04:33:36;;;;;;;1999.90;999.90;;;7.90;99.90;;;;;;5081542;28;20438;-63
2024/01/25 04:36:03;;;;;;;1999.90;999.90;;;7.90;99.90;;;;;;5081286;28;20415;-66
2024/01/25 04:38:29;;;;;;;1999.90;999.90;;;8.00;99.90;;;;;;5086783;28;20915;-65
2024/01/25 04:40:57;;;;;;;1999.90;999.90;;;8.00;99.90;;;;;;5090762;28;20405;-65
2024/01/25 04:43:24;;;;;;;1999.90;999.90;;;8.00;99.90;;;;;;5078371;28;20415;-65
2024/01/25 04:45:50;;;;;;;1999.90;999.90;;;8.00;99.90;;;;;;5077191;28;20465;-64
2024/01/25 04:48:17;;;;;;;1999.90;999.90;;;8.00;99.90;;;;;;5088559;28;20958;-63
2024/01/25 04:50:44;;;;;;;1999.90;999.90;;;8.00;99.90;;;;;;5082496;28;21114;-66
2024/01/25 04:53:10;;;;;;;1999.90;999.90;;;7.90;99.90;;;;;;5094051;28;20467;-65
2024/01/25 04:55:37;;;;;;;1999.90;999.90;;;7.90;99.90;;;;;;5096489;28;20453;-65
2024/01/25 04:58:05;;;;;;;1999.90;999.90;;;7.90;99.90;;;;;;5100285;28;20519;-65
2024/01/25 05:00:32;;;;;;;1999.90;999.90;;;7.80;99.90;;;;;;5089917;28;20409;-65
2024/01/25 05:02:59;;;;;;;1999.90;999.90;;;7.90;99.90;;;;;;5106820;28;20412;-65
2024/01/25 05:05:25;;;;;;;1999.90;999.90;;;7.80;99.90;;;;;;5114423;28;20447;-65
2024/01/25 05:07:52;;;;;;;1999.90;999.90;;;7.80;99.90;;;;;;5102922;28;20410;-65
2024/01/25 05:10:18;;;;;;;1999.90;999.90;;;7.80;99.90;;;;;;5081176;28;20434;-65
2024/01/25 05:12:45;;;;;;;1999.90;999.90;;;7.90;99.90;;;;;;5090147;28;20408;-63
2024/01/25 05:15:13;;;;;;;1999.90;999.90;;;7.90;99.90;;;;;;5089507;28;20486;-64
2024/01/25 05:17:40;;;;;;;1999.90;999.90;;;7.80;99.90;;;;;;5091580;28;20903;-62
2024/01/25 05:20:08;;;;;;;1999.90;999.90;;;7.80;99.90;;;;;;5090435;28;20439;-62
2024/01/25 05:22:39;;;;;;;1999.90;999.90;;;7.70;99.90;;;;;;5080319;28;20421;-65
2024/01/25 05:25:08;;;;;;;1999.90;999.90;;;7.70;99.90;;;;;;5085745;28;20424;-62
2024/01/25 05:27:34;;;;;;;1999.90;999.90;;;7.70;99.90;;;;;;5094284;28;20474;-65
2024/01/25 05:30:01;;;;;;;1999.90;999.90;;;7.70;99.90;;;;;;5088281;28;20951;-65
2024/01/25 05:32:30;;;;;;;1999.90;999.90;;;7.60;99.90;;;;;;5091828;28;20463;-64
2024/01/25 05:34:56;;;;;;;1999.90;999.90;;;7.60;99.90;;;;;;5085887;28;20429;-65
2024/01/25 05:37:23;;;;;;;1999.90;999.90;;;7.70;99.90;;;;;;5088309;28;20406;-65
2024/01/25 05:39:50;;;;;;;1999.90;999.90;;;7.70;99.90;;;;;;5087624;28;20909;-64
2024/01/25 05:42:16;;;;;;;1999.90;999.90;;;7.70;99.90;;;;;;5092622;28;20406;-65
2024/01/25 05:44:43;;;;;;;1999.90;999.90;;;7.60;99.90;;;;;;5090456;28;20421;-64
2024/01/25 05:47:10;;;;;;;1999.90;999.90;;;7.60;99.90;;;;;;5082759;28;20497;-65
2024/01/25 05:49:38;;;;;;;1999.90;999.90;;;7.60;99.90;;;;;;5076799;28;20896;-65
2024/01/25 05:52:05;;;;;;;1999.90;999.90;;;7.60;99.90;;;;;;5086642;28;20460;-65
2024/01/25 05:54:31;;;;;;;1999.90;999.90;;;7.60;99.90;;;;;;5085507;28;20475;-65
2024/01/25 05:56:58;;;;;;;1999.90;999.90;;;7.50;99.90;;;;;;5095535;28;20414;-63
2024/01/25 05:59:25;;;;;;;1999.90;999.90;;;7.40;99.90;;;;;;5097460;28;20463;-67
2024/01/25 06:01:51;;;;;;;1999.90;999.90;;;7.40;99.90;;;;;;5108663;28;20434;-64
2024/01/25 06:04:19;;;;;;;1999.90;999.90;;;7.40;99.90;;;;;;5086501;28;20430;-63
2024/01/25 06:06:47;;;;;;;1999.90;999.90;;;7.30;99.90;;;;;;5083100;28;20444;-63
2024/01/25 06:09:15;;;;;;;1999.90;999.90;;;7.30;99.90;;;;;;5085330;28;20426;-64
2024/01/25 06:11:41;;;;;;;1999.90;999.90;;;7.50;99.90;;;;;;5084062;28;20430;-62
2024/01/25 06:14:08;;;;;;;1999.90;999.90;;;7.30;99.90;;;;;;5085049;28;20402;-65
2024/01/25 06:16:35;;;;;;;1999.90;999.90;;;7.30;99.90;;;;;;5095333;28;20421;-63
2024/01/25 06:19:04;;;;;;;1999.90;999.90;;;7.40;99.90;;;;;;5084741;28;20410;-65
2024/01/25 06:21:30;;;;;;;1999.90;999.90;;;7.20;99.90;;;;;;5084915;28;20433;-67
2024/01/25 06:23:58;;;;;;;1999.90;999.90;;;7.20;99.90;;;;;;5086624;28;20843;-65
2024/01/25 06:26:25;;;;;;;1999.90;999.90;;;7.20;99.90;;;;;;5083329;28;20725;-64
2024/01/25 06:28:52;;;;;;;1999.90;999.90;;;7.10;99.90;;;;;;5084289;28;20434;-65
2024/01/25 06:31:18;;;;;;;1999.90;999.90;;;7.20;99.90;;;;;;5084226;28;20429;-65
2024/01/25 06:33:46;;;;;;;1999.90;999.90;;;7.10;99.90;;;;;;5094193;28;20410;-66
2024/01/25 06:36:15;;;;;;;1999.90;999.90;;;7.10;99.90;;;;;;5091709;28;20401;-67
2024/01/25 06:38:41;;;;;;;1999.90;999.90;;;7.10;99.90;;;;;;5084073;28;20470;-66
2024/01/25 06:41:09;;;;;;;1999.90;999.90;;;7.20;99.90;;;;;;5091191;28;20892;-65
2024/01/25 06:43:36;;;;;;;1999.90;999.90;;;7.20;99.90;;;;;;5091634;28;20409;-65
2024/01/25 06:46:03;;;;;;;1999.90;999.90;;;7.20;99.90;;;;;;5085175;28;20430;-66
2024/01/25 06:48:29;;;;;;;1999.90;999.90;;;7.10;99.90;;;;;;5091995;28;20413;-65
2024/01/25 06:50:56;;;;;;;1999.90;999.90;;;7.20;99.90;;;;;;5091818;28;20410;-67
2024/01/25 06:53:23;;;;;;;1999.90;999.90;;;7.20;99.90;;;;;;5092477;28;20467;-66
2024/01/25 06:55:50;;;;;;;1999.90;999.90;;;7.20;99.90;;;;;;5091104;28;20406;-66
2024/01/25 06:58:18;;;;;;;1999.90;999.90;;;7.20;99.90;;;;;;5091548;28;20406;-66
2024/01/25 07:00:46;;;;;;;1999.90;999.90;;;7.20;99.90;;;;;;5087807;28;20459;-64
2024/01/25 07:03:14;;;;;;;1999.90;999.90;;;7.50;99.90;;;;;;5083101;28;20406;-67
2024/01/25 07:05:41;;;;;;;1999.90;999.90;;;7.30;99.90;;;;;;5090974;28;20452;-67
2024/01/25 07:08:12;;;;;;;1999.90;999.90;;;7.30;99.90;;;;;;5090712;28;20928;-67
2024/01/25 07:10:39;;;;;;;1999.90;999.90;;;7.20;99.90;;;;;;5090785;28;20418;-66
2024/01/25 07:13:06;;;;;;;1999.90;999.90;;;7.20;99.90;;;;;;5088930;28;20912;-66
2024/01/25 07:15:34;;;;;;;1999.90;999.90;;;7.20;99.90;;;;;;5085393;28;20414;-65
2024/01/25 07:18:00;;;;;;;1999.90;999.90;;;7.20;99.90;;;;;;5090866;28;20466;-67
2024/01/25 07:20:27;;;;;;;1999.90;999.90;;;7.20;99.90;;;;;;5081290;28;20908;-66
2024/01/25 07:22:54;;;;;;;1999.90;999.90;;;7.20;99.90;;;;;;5105900;28;20428;-66
2024/01/25 07:25:21;;;;;;;1999.90;999.90;;;7.30;99.90;;;;;;5098552;28;20457;-64
2024/01/25 07:27:49;;;;;;;1999.90;999.90;;;7.30;99.90;;;;;;5080279;28;20414;-68
2024/01/25 07:30:15;;;;;;;1999.90;999.90;;;7.20;99.90;;;;;;5089732;28;20953;-64
2024/01/25 07:32:45;;;;;;;1999.90;999.90;;;7.30;99.90;;;;;;5089860;28;20489;-64
2024/01/25 07:35:12;;;;;;;1999.90;999.90;;;7.30;99.90;;;;;;5079499;28;20437;-67
2024/01/25 07:37:40;;;;;;;1999.90;999.90;;;7.40;99.90;;;;;;5083881;28;20511;-67
2024/01/25 07:40:08;;;;;;;1999.90;999.90;;;7.30;99.90;;;;;;5086080;28;20873;-64
2024/01/25 07:42:34;;;;;;;1999.90;999.90;;;7.40;99.90;;;;;;5086501;28;20417;-64
2024/01/25 07:45:01;;;;;;;1999.90;999.90;;;7.40;99.90;;;;;;5092573;28;20448;-67
2024/01/25 07:47:28;;;;;;;1999.90;999.90;;;7.30;99.90;;;;;;5088032;28;20907;-67
2024/01/25 07:49:56;;;;;;;1999.90;999.90;;;7.30;99.90;;;;;;5087983;28;20457;-65
2024/01/25 07:52:23;;;;;;;1999.90;999.90;;;7.30;99.90;;;;;;5085483;28;20479;-66
2024/01/25 07:54:49;;;;;;;1999.90;999.90;;;7.30;99.90;;;;;;5089431;28;20455;-66
2024/01/25 07:57:16;;;;;;;1999.90;999.90;;;7.20;99.90;;;;;;5090009;28;20410;-66
2024/01/25 07:59:43;;;;;;;1999.90;999.90;;;7.20;99.90;;;;;;5075631;28;20442;-66
2024/01/25 08:02:09;;;;;;;1999.90;999.90;;;7.20;99.90;;;;;;5077991;28;21028;-65
2024/01/25 08:04:36;;;;;;;1999.90;999.90;;;7.20;99.90;;;;;;5080296;28;20426;-65
2024/01/25 08:07:04;;;;;;;1999.90;999.90;;;7.10;99.90;;;;;;5093317;28;20478;-66
2024/01/25 08:09:31;;;;;;;1999.90;999.90;;;7.10;99.90;;;;;;5088466;28;20410;-66
2024/01/25 08:11:57;;;;;;;1999.90;999.90;;;7.20;99.90;;;;;;5074467;28;20408;-66
2024/01/25 08:14:24;;;;;;;1999.90;999.90;;;7.20;99.90;;;;;;5083302;28;20405;-66
2024/01/25 08:16:51;;;;;;;1999.90;999.90;;;7.30;99.90;;;;;;5078131;28;20419;-66
2024/01/25 08:19:17;;;;;;;1999.90;999.90;;;7.30;99.90;;;;;;5078057;28;20479;-66
2024/01/25 08:21:44;;;;;;;1999.90;999.90;;;7.30;99.90;;;;;;5100578;28;20433;-67
2024/01/25 08:24:12;;;;;;;1999.90;999.90;;;7.40;99.90;;;;;;5088425;28;20413;-65
2024/01/25 08:26:39;;;;;;;1999.90;999.90;;;7.40;99.90;;;;;;5083437;28;20809;-66
2024/01/25 08:29:06;;;;;;;1999.90;999.90;;;7.50;99.90;;;;;;5092331;28;20435;-63
2024/01/25 08:31:32;;;;;;;1999.90;999.90;;;7.40;99.90;;;;;;5090901;28;20949;-65
2024/01/25 08:33:59;;;;;;;1999.90;999.90;;;7.40;99.90;;;;;;5089959;28;20410;-63
2024/01/25 08:36:26;;;;;;;1999.90;999.90;;;7.40;99.90;;;;;;5089991;28;20418;-67
2024/01/25 08:38:52;;;;;;;1999.90;999.90;;;7.50;99.90;;;;;;5083953;28;20434;-65
2024/01/25 08:41:20;;;;;;;1999.90;999.90;;;7.60;99.90;;;;;;5107525;28;20404;-66
2024/01/25 08:43:47;;;;;;;1999.90;999.90;;;7.60;99.90;;;;;;5090697;28;20489;-65
2024/01/25 08:46:16;;;;;;;1999.90;999.90;;;7.60;99.90;;;;;;5089097;28;20426;-66
2024/01/25 08:48:42;;;;;;;1999.90;999.90;;;7.70;99.90;;;;;;5085670;28;20505;-67
2024/01/25 08:51:09;;;;;;;1999.90;999.90;;;7.80;99.90;;;;;;5096862;28;20416;-67
2024/01/25 08:53:36;;;;;;;1999.90;999.90;;;7.80;99.90;;;;;;5076190;28;20414;-64
2024/01/25 08:56:02;;;;;;;1999.90;999.90;;;7.80;99.90;;;;;;5080364;28;20463;-67
2024/01/25 08:58:30;;;;;;;1999.90;999.90;;;7.80;99.90;;;;;;5086884;28;20511;-66
2024/01/25 09:00:57;;;;;;;1999.90;999.90;;;7.90;99.90;;;;;;5087840;28;20417;-67
2024/01/25 09:03:24;;;;;;;1999.90;999.90;;;8.00;99.90;;;;;;5091093;28;20501;-66
2024/01/25 09:05:50;;;;;;;1999.90;999.90;;;8.10;99.90;;;;;;5084557;28;20825;-66
2024/01/25 09:08:17;;;;;;;1999.90;999.90;;;8.20;99.90;;;;;;5086567;28;20507;-65
2024/01/25 09:10:44;;;;;;;1999.90;999.90;;;8.10;99.90;;;;;;5079559;28;20411;-67
2024/01/25 09:13:11;;;;;;;1999.90;999.90;;;8.10;99.90;;;;;;5085225;28;20830;-67
2024/01/25 09:15:39;;;;;;;1999.90;999.90;;;8.10;99.90;;;;;;5088331;28;20493;-67
2024/01/25 09:18:06;;;;;;;1999.90;999.90;;;8.10;99.90;;;;;;5090587;28;20435;-66
2024/01/25 09:20:32;;;;;;;1999.90;999.90;;;8.80;99.90;;;;;;5099760;28;20401;-68
2024/01/25 09:22:59;;;;;;;1999.90;999.90;;;8.40;99.90;;;;;;5096538;28;20795;-66
2024/01/25 09:25:26;;;;;;;1999.90;999.90;;;8.50;99.90;;;;;;5082279;28;20918;-65
2024/01/25 09:27:53;;;;;;;1999.90;999.90;;;8.80;99.90;;;;;;5088119;28;20486;-68
2024/01/25 09:30:20;;;;;;;1999.90;999.90;;;8.70;99.90;;;;;;5079269;28;20526;-68
2024/01/25 09:32:47;;;;;;;1999.90;999.90;;;8.60;99.90;;;;;;5074786;28;20489;-64
2024/01/25 09:35:14;;;;;;;1999.90;999.90;;;8.60;99.90;;;;;;5094885;28;20494;-66
2024/01/25 09:37:41;;;;;;;1999.90;999.90;;;8.70;99.90;;;;;;5088061;28;20429;-67
2024/01/25 09:40:09;;;;;;;1999.90;999.90;;;8.70;99.90;;;;;;5087151;28;20440;-66
2024/01/25 09:42:36;;;;;;;1999.90;999.90;;;8.70;99.90;;;;;;5087362;28;20835;-68
2024/01/25 09:45:08;;;;;;;1999.90;999.90;;;8.60;99.90;;;;;;5083037;28;20491;-66
2024/01/25 09:47:34;;;;;;;1999.90;999.90;;;8.60;99.90;;;;;;5081583;28;21020;-68
2024/01/25 09:50:04;;;;;;;1999.90;999.90;;;8.60;99.90;;;;;;5090092;28;20410;-68
2024/01/25 09:52:32;;;;;;;1999.90;999.90;;;8.60;99.90;;;;;;5080316;28;20507;-65
2024/01/25 09:54:59;;;;;;;1999.90;999.90;;;8.70;99.90;;;;;;5084907;28;20891;-65
2024/01/25 09:57:29;;;;;;;1999.90;999.90;;;8.80;99.90;;;;;;5092346;28;20502;-66
2024/01/25 09:59:55;;;;;;;1999.90;999.90;;;8.90;99.90;;;;;;5091970;28;20406;-65
2024/01/25 10:02:22;;;;;;;1999.90;999.90;;;9.00;99.90;;;;;;5090307;28;20455;-65
2024/01/25 10:04:51;;;;;;;1999.90;999.90;;;9.10;99.90;;;;;;5094130;28;20497;-65
2024/01/25 10:07:36;;;;;;;1999.90;999.90;;;9.30;99.90;;;;;;5089917;28;20437;-63
2024/01/25 10:10:04;;;;;;;1999.90;999.90;;;9.40;99.90;;;;;;5105481;28;20483;-65
2024/01/25 10:12:31;;;;;;;1999.90;999.90;;;9.40;99.90;;;;;;5091425;28;20437;-65
2024/01/25 10:14:58;;;;;;;1999.90;999.90;;;9.40;99.90;;;;;;5090994;28;20413;-66
2024/01/25 10:17:24;;;;;;;1999.90;999.90;;;9.40;99.90;;;;;;5093501;28;20485;-65
2024/01/25 10:19:51;;;;;;;1999.90;999.90;;;9.30;99.90;;;;;;5089985;28;20613;-65
2024/01/25 10:22:19;;;;;;;1999.90;999.90;;;9.40;99.90;;;;;;5095680;28;20437;-64
2024/01/25 10:24:46;;;;;;;1999.90;999.90;;;9.40;99.90;;;;;;5098281;28;20432;-66
2024/01/25 10:27:13;;;;;;;1999.90;999.90;;;9.40;99.90;;;;;;5097655;28;20425;-66
2024/01/25 10:29:39;;;;;;;1999.90;999.90;;;9.30;99.90;;;;;;5085229;28;20490;-67
2024/01/25 10:32:09;;;;;;;1999.90;999.90;;;9.40;99.90;;;;;;5089909;28;20418;-68
2024/01/25 10:34:37;;;;;;;1999.90;999.90;;;9.20;99.90;;;;;;5086034;28;20471;-67
2024/01/25 10:37:05;;;;;;;1999.90;999.90;;;9.20;99.90;;;;;;5081003;28;20431;-67
2024/01/25 10:39:34;;;;;;;1999.90;999.90;;;9.30;99.90;;;;;;5085428;28;20437;-65
2024/01/25 10:42:01;;;;;;;1999.90;999.90;;;9.40;99.90;;;;;;5086630;28;20471;-66
2024/01/25 10:44:28;;;;;;;1999.90;999.90;;;9.50;99.90;;;;;;5085930;28;20418;-67
2024/01/25 10:46:55;;;;;;;1999.90;999.90;;;9.50;99.90;;;;;;5090446;28;20434;-65
2024/01/25 10:49:22;;;;;;;1999.90;999.90;;;9.50;99.90;;;;;;5088896;28;20493;-67
2024/01/25 10:51:49;;;;;;;1999.90;999.90;;;9.40;99.90;;;;;;5084278;28;20499;-68
2024/01/25 10:54:16;;;;;;;1999.90;999.90;;;9.60;99.90;;;;;;5092733;28;20457;-65
2024/01/25 10:56:47;;;;;;;1999.90;999.90;;;9.70;99.90;;;;;;5105264;28;20817;-67
2024/01/25 10:59:14;;;;;;;1999.90;999.90;;;9.70;99.90;;;;;;5085120;28;20406;-63
2024/01/25 11:01:44;;;;;;;1999.90;999.90;;;9.70;99.90;;;;;;5088719;28;20468;-64
2024/01/25 11:04:13;;;;;;;1999.90;999.90;;;9.90;99.90;;;;;;5085128;28;20427;-65
2024/01/25 11:06:40;;;;;;;1999.90;999.90;;;10.00;99.90;;;;;;5082971;28;20457;-65
2024/01/25 11:09:08;;;;;;;1999.90;999.90;;;9.90;99.90;;;;;;5085321;28;20440;-65
2024/01/25 11:11:36;;;;;;;1999.90;999.90;;;9.80;99.90;;;;;;5088000;28;20781;-63
2024/01/25 11:14:04;;;;;;;1999.90;999.90;;;9.90;99.90;;;;;;5080068;28;20416;-64
2024/01/25 11:16:34;;;;;;;1999.90;999.90;;;9.90;99.90;;;;;;5087177;28;20402;-65
2024/01/25 11:19:05;;;;;;;1999.90;999.90;;;9.80;99.90;;;;;;5086682;28;20410;-66
2024/01/25 11:21:41;;;;;;;1999.90;999.90;;;9.80;99.90;;;;;;5089789;28;20436;-65
2024/01/25 11:24:13;;;;;;;1999.90;999.90;;;9.90;99.90;;;;;;5086875;28;20417;-65
2024/01/25 11:26:40;;;;;;;1999.90;999.90;;;9.80;99.90;;;;;;5082568;28;20804;-66
2024/01/25 11:29:08;;;;;;;1999.90;999.90;;;9.80;99.90;;;;;;5089123;28;20442;-63
2024/01/25 11:31:35;;;;;;;1999.90;999.90;;;9.90;99.90;;;;;;5097857;28;20414;-66
2024/01/25 11:34:02;;;;;;;1999.90;999.90;;;9.60;99.90;;;;;;5082811;28;21011;-63
2024/01/25 11:36:29;;;;;;;1999.90;999.90;;;9.50;99.90;;;;;;5082427;28;20414;-62
2024/01/25 11:38:57;;;;;;;1999.90;999.90;;;9.40;99.90;;;;;;5087242;28;20407;-68
2024/01/25 11:41:23;;;;;;;1999.90;999.90;;;9.30;99.90;;;;;;5089368;28;20450;-67
2024/01/25 11:43:50;;;;;;;1999.90;999.90;;;9.20;99.90;;;;;;5093336;28;20476;-65
2024/01/25 11:46:19;;;;;;;1999.90;999.90;;;9.30;99.90;;;;;;5095275;28;20428;-62
2024/01/25 11:48:45;;;;;;;1999.90;999.90;;;9.30;99.90;;;;;;5088768;28;20414;-65
2024/01/25 11:51:13;;;;;;;1999.90;999.90;;;9.30;99.90;;;;;;5086732;28;20914;-64
2024/01/25 11:53:39;;;;;;;1999.90;999.90;;;9.50;99.90;;;;;;5093409;28;20428;-65
2024/01/25 11:56:09;;;;;;;1999.90;999.90;;;9.60;99.90;;;;;;5093253;28;20402;-63
2024/01/25 11:58:37;;;;;;;1999.90;999.90;;;9.80;99.90;;;;;;5087180;28;20518;-64
2024/01/25 12:01:07;;;;;;;1999.90;999.90;;;10.00;99.90;;;;;;5090525;28;20414;-65
2024/01/25 12:03:37;;;;;;;1999.90;999.90;;;9.90;99.90;;;;;;5087385;28;20501;-62
2024/01/25 12:06:04;;;;;;;1999.90;999.90;;;9.90;99.90;;;;;;5087898;28;20467;-65
2024/01/25 12:08:32;;;;;;;1999.90;999.90;;;10.00;99.90;;;;;;5087280;28;20477;-65